createdAt,value
2023-02-01T00:01:35.993Z,74.64
2023-02-01T00:04:05.276Z,74.74
2023-02-01T00:06:34.106Z,74.89
2023-02-01T00:09:03.277Z,74.69
2023-02-01T00:11:32.222Z,74.67
2023-02-01T00:14:01.128Z,74.79
2023-02-01T00:16:32.323Z,74.69
2023-02-01T00:19:03.661Z,74.48
2023-02-01T00:21:33.388Z,74.20
2023-02-01T00:24:02.254Z,74.68
2023-02-01T00:26:35.820Z,74.51
2023-02-01T00:29:07.819Z,74.31
2023-02-01T00:31:36.716Z,74.20
2023-02-01T00:34:06.061Z,74.54
2023-02-01T00:36:35.587Z,74.66
2023-02-01T00:39:04.606Z,74.67
2023-02-01T00:41:33.468Z,74.67
2023-02-01T00:44:03.120Z,74.58
2023-02-01T00:46:32.526Z,74.29
2023-02-01T00:49:01.522Z,74.47
2023-02-01T00:51:31.915Z,74.56
2023-02-01T00:54:00.822Z,74.68
2023-02-01T00:56:29.652Z,74.59
2023-02-01T00:58:58.609Z,74.82
2023-02-01T01:01:30.048Z,74.68
2023-02-01T01:04:01.369Z,74.81
2023-02-01T01:06:33.081Z,75.13
2023-02-01T01:09:05.195Z,74.99
2023-02-01T01:11:37.161Z,75.06
2023-02-01T01:14:09.622Z,75.20
2023-02-01T01:16:38.842Z,75.22
2023-02-01T01:19:08.197Z,75.02
2023-02-01T01:21:37.209Z,75.32
2023-02-01T01:24:06.413Z,75.28
2023-02-01T01:26:35.312Z,75.55
2023-02-01T01:29:04.441Z,75.51
2023-02-01T01:31:33.806Z,75.73
2023-02-01T01:34:03.914Z,76.24
2023-02-01T01:36:33.841Z,76.40
2023-02-01T01:39:02.779Z,76.25
2023-02-01T01:41:34.334Z,76.88
2023-02-01T01:44:53.677Z,76.78
2023-02-01T01:47:22.681Z,77.23
2023-02-01T01:49:52.324Z,77.45
2023-02-01T01:52:22.190Z,77.70
2023-02-01T01:54:54.871Z,77.97
2023-02-01T01:57:31.018Z,78.07
2023-02-01T02:00:07.001Z,78.93
2023-02-01T02:02:45.868Z,78.72
2023-02-01T02:05:19.716Z,78.46
2023-02-01T02:07:52.480Z,78.30
2023-02-01T02:10:22.002Z,79.07
2023-02-01T02:12:51.173Z,79.72
2023-02-01T02:15:20.169Z,79.92
2023-02-01T02:17:59.195Z,79.38
2023-02-01T02:20:55.823Z,78.94
2023-02-01T02:23:35.832Z,79.67
2023-02-01T02:26:36.907Z,80.46
2023-02-01T02:29:41.317Z,79.31
2023-02-01T02:32:53.428Z,78.98
2023-02-01T02:35:36.271Z,78.87
2023-02-01T02:38:34.498Z,79.04
2023-02-01T02:41:06.471Z,79.40
2023-02-01T02:44:14.449Z,80.25
2023-02-01T02:47:08.817Z,80.42
2023-02-01T02:49:41.506Z,80.90
2023-02-01T02:52:36.569Z,81.51
2023-02-01T02:55:07.868Z,81.52
2023-02-01T02:58:02.383Z,81.59
2023-02-01T03:00:54.732Z,82.18
2023-02-01T03:03:42.453Z,82.39
2023-02-01T03:06:17.663Z,82.13
2023-02-01T03:08:47.277Z,81.18
2023-02-01T03:11:17.540Z,80.80
2023-02-01T03:13:58.941Z,81.07
2023-02-01T03:16:35.078Z,81.72
2023-02-01T03:19:06.981Z,81.74
2023-02-01T03:21:40.141Z,81.29
2023-02-01T03:24:41.432Z,80.82
2023-02-01T03:27:13.048Z,81.35
2023-02-01T03:29:48.356Z,81.54
2023-02-01T03:32:18.299Z,81.53
2023-02-01T03:34:49.825Z,80.87
2023-02-01T03:37:27.944Z,81.57
2023-02-01T03:40:02.807Z,80.74
2023-02-01T03:42:47.992Z,81.21
2023-02-01T03:45:36.657Z,81.61
2023-02-01T03:48:06.671Z,81.59
2023-02-01T03:50:40.229Z,81.82
2023-02-01T03:53:16.402Z,82.19
2023-02-01T03:55:48.227Z,82.14
2023-02-01T03:58:23.060Z,82.13
2023-02-01T04:00:59.156Z,81.78
2023-02-01T04:03:29.639Z,81.41
2023-02-01T04:05:59.166Z,81.12
2023-02-01T04:08:31.192Z,80.94
2023-02-01T04:10:59.987Z,81.17
2023-02-01T04:13:28.782Z,80.91
2023-02-01T04:15:57.616Z,80.98
2023-02-01T04:18:26.474Z,81.62
2023-02-01T04:20:55.736Z,80.88
2023-02-01T04:23:24.533Z,80.85
2023-02-01T04:25:53.450Z,81.06
2023-02-01T04:28:22.598Z,81.58
2023-02-01T04:30:51.613Z,81.38
2023-02-01T04:33:20.506Z,81.23
2023-02-01T04:35:49.952Z,81.24
2023-02-01T04:38:18.883Z,81.06
2023-02-01T04:40:49.822Z,80.91
2023-02-01T04:43:19.288Z,80.82
2023-02-01T04:45:51.339Z,80.63
2023-02-01T04:48:23.951Z,81.02
2023-02-01T04:50:53.745Z,80.98
2023-02-01T04:53:22.856Z,81.01
2023-02-01T04:55:51.859Z,81.13
2023-02-01T05:00:51.434Z,81.31
2023-02-01T05:03:21.179Z,81.65
2023-02-01T05:05:50.616Z,81.32
2023-02-01T05:08:19.469Z,81.09
2023-02-01T05:10:48.309Z,80.84
2023-02-01T05:13:35.783Z,80.73
2023-02-01T05:16:05.101Z,80.97
2023-02-01T05:18:34.102Z,81.02
2023-02-01T05:21:03.488Z,81.01
2023-02-01T05:23:32.512Z,81.30
2023-02-01T05:26:02.390Z,81.68
2023-02-01T05:31:01.247Z,80.95
2023-02-01T05:33:30.232Z,81.30
2023-02-01T05:35:59.327Z,81.43
2023-02-01T05:38:28.784Z,81.11
2023-02-01T05:40:58.069Z,81.54
2023-02-01T05:43:26.975Z,81.50
2023-02-01T05:45:55.925Z,81.87
2023-02-01T05:48:24.820Z,81.41
2023-02-01T05:50:53.680Z,81.60
2023-02-01T05:53:23.078Z,81.47
2023-02-01T05:55:51.967Z,81.60
2023-02-01T05:58:20.760Z,81.72
2023-02-01T06:00:50.101Z,81.87
2023-02-01T06:03:20.333Z,82.37
2023-02-01T06:05:49.690Z,82.32
2023-02-01T06:08:19.052Z,82.45
2023-02-01T06:10:47.975Z,82.92
2023-02-01T06:13:17.103Z,82.54
2023-02-01T06:15:46.033Z,82.86
2023-02-01T06:18:17.364Z,82.49
2023-02-01T06:20:46.672Z,82.75
2023-02-01T06:23:15.610Z,82.11
2023-02-01T06:25:44.513Z,82.45
2023-02-01T06:28:13.345Z,82.27
2023-02-01T06:30:45.286Z,81.88
2023-02-01T06:33:16.721Z,81.76
2023-02-01T06:35:45.897Z,81.83
2023-02-01T06:38:15.367Z,82.23
2023-02-01T06:40:44.407Z,82.02
2023-02-01T06:43:13.584Z,81.91
2023-02-01T06:45:43.371Z,82.43
2023-02-01T06:48:12.280Z,82.02
2023-02-01T06:50:41.237Z,81.96
2023-02-01T06:53:10.224Z,81.85
2023-02-01T06:55:39.137Z,81.98
2023-02-01T06:58:08.033Z,82.09
2023-02-01T07:00:38.091Z,82.31
2023-02-01T07:03:07.403Z,81.75
2023-02-01T07:05:36.510Z,81.56
2023-02-01T07:08:05.627Z,81.76
2023-02-01T07:10:36.461Z,81.63
2023-02-01T07:13:05.745Z,81.29
2023-02-01T07:15:35.115Z,81.44
2023-02-01T07:18:04.107Z,81.26
2023-02-01T07:20:33.210Z,81.44
2023-02-01T07:23:02.445Z,81.30
2023-02-01T07:25:31.464Z,81.49
2023-02-01T07:28:00.431Z,81.23
2023-02-01T07:30:29.564Z,80.81
2023-02-01T07:33:02.586Z,80.51
2023-02-01T07:35:31.847Z,80.86
2023-02-01T07:38:00.867Z,80.72
2023-02-01T07:40:32.884Z,81.55
2023-02-01T07:43:02.047Z,81.94
2023-02-01T07:45:30.905Z,81.62
2023-02-01T07:47:59.812Z,81.29
2023-02-01T07:50:28.720Z,81.10
2023-02-01T07:52:59.844Z,81.21
2023-02-01T07:55:29.158Z,80.90
2023-02-01T07:58:01.240Z,80.62
2023-02-01T08:00:49.535Z,80.84
2023-02-01T08:03:19.480Z,81.17
2023-02-01T08:05:48.438Z,80.91
2023-02-01T08:08:17.393Z,81.16
2023-02-01T08:10:46.298Z,80.88
2023-02-01T08:13:15.500Z,80.78
2023-02-01T08:15:44.736Z,80.59
2023-02-01T08:18:17.772Z,80.36
2023-02-01T08:20:49.907Z,80.61
2023-02-01T08:23:18.922Z,80.97
2023-02-01T08:25:48.343Z,80.49
2023-02-01T08:28:17.420Z,80.39
2023-02-01T08:30:46.873Z,80.55
2023-02-01T08:33:16.254Z,80.75
2023-02-01T08:35:45.434Z,80.41
2023-02-01T08:38:14.658Z,80.49
2023-02-01T08:40:43.630Z,80.38
2023-02-01T08:43:12.552Z,80.45
2023-02-01T08:45:42.021Z,80.57
2023-02-01T08:48:10.983Z,80.39
2023-02-01T08:50:39.893Z,80.61
2023-02-01T08:53:08.735Z,80.56
2023-02-01T08:55:37.809Z,80.51
2023-02-01T08:58:06.640Z,80.28
2023-02-01T09:00:36.425Z,80.29
2023-02-01T09:03:05.636Z,80.25
2023-02-01T09:05:48.368Z,80.45
2023-02-01T09:08:20.456Z,80.63
2023-02-01T09:10:49.390Z,80.55
2023-02-01T09:13:18.302Z,80.64
2023-02-01T09:15:47.294Z,80.64
2023-02-01T09:18:16.221Z,80.67
2023-02-01T09:20:45.271Z,80.16
2023-02-01T09:23:14.326Z,80.35
2023-02-01T09:25:43.271Z,80.31
2023-02-01T09:28:12.205Z,79.99
2023-02-01T09:30:41.302Z,80.40
2023-02-01T09:33:10.356Z,80.56
2023-02-01T09:35:39.752Z,80.50
2023-02-01T09:38:08.660Z,80.54
2023-02-01T09:40:37.764Z,79.87
2023-02-01T09:43:18.097Z,79.91
2023-02-01T09:46:19.631Z,80.02
2023-02-01T09:48:49.234Z,80.34
2023-02-01T09:51:27.005Z,79.77
2023-02-01T09:54:12.897Z,80.10
2023-02-01T09:57:07.980Z,79.71
2023-02-01T09:59:46.490Z,79.70
2023-02-01T10:02:23.732Z,79.86
2023-02-01T10:04:58.492Z,80.05
2023-02-01T10:07:51.404Z,79.77
2023-02-01T10:10:37.317Z,80.09
2023-02-01T10:13:28.829Z,80.04
2023-02-01T10:16:15.340Z,79.46
2023-02-01T10:18:58.512Z,79.47
2023-02-01T10:21:41.253Z,79.78
2023-02-01T10:24:32.081Z,79.55
2023-02-01T10:27:14.656Z,79.63
2023-02-01T10:29:49.191Z,79.22
2023-02-01T10:32:22.962Z,79.18
2023-02-01T10:35:02.466Z,79.15
2023-02-01T10:37:34.965Z,78.97
2023-02-01T10:40:23.443Z,79.54
2023-02-01T10:42:56.502Z,79.51
2023-02-01T10:45:30.089Z,79.58
2023-02-01T10:48:01.861Z,79.59
2023-02-01T10:50:45.800Z,79.27
2023-02-01T10:53:27.694Z,79.54
2023-02-01T10:55:57.686Z,79.08
2023-02-01T10:58:35.330Z,79.21
2023-02-01T11:01:33.118Z,79.60
2023-02-01T11:04:05.225Z,79.79
2023-02-01T11:07:00.090Z,79.84
2023-02-01T11:09:29.303Z,80.11
2023-02-01T11:12:00.874Z,80.12
2023-02-01T11:14:39.630Z,79.98
2023-02-01T11:17:30.509Z,79.95
2023-02-01T11:20:07.660Z,80.17
2023-02-01T11:22:36.734Z,80.29
2023-02-01T11:25:12.471Z,80.27
2023-02-01T11:27:54.454Z,80.29
2023-02-01T11:30:33.412Z,79.83
2023-02-01T11:33:06.526Z,80.16
2023-02-01T11:35:41.054Z,80.05
2023-02-01T11:38:33.434Z,80.40
2023-02-01T11:41:35.121Z,79.95
2023-02-01T11:44:23.079Z,80.32
2023-02-01T11:46:52.107Z,80.39
2023-02-01T11:49:28.812Z,80.67
2023-02-01T11:52:25.428Z,80.06
2023-02-01T11:55:33.280Z,79.91
2023-02-01T11:58:47.054Z,79.86
2023-02-01T12:01:43.264Z,79.86
2023-02-01T12:04:41.304Z,79.99
2023-02-01T12:07:32.107Z,80.33
2023-02-01T12:10:25.358Z,80.13
2023-02-01T12:13:15.548Z,80.28
2023-02-01T12:16:10.625Z,80.23
2023-02-01T12:18:58.282Z,79.74
2023-02-01T12:21:28.748Z,80.17
2023-02-01T12:24:31.987Z,79.94
2023-02-01T12:27:16.694Z,79.99
2023-02-01T12:30:01.212Z,79.98
2023-02-01T12:32:53.306Z,80.07
2023-02-01T12:35:54.551Z,80.05
2023-02-01T12:38:39.166Z,80.14
2023-02-01T12:41:26.367Z,80.35
2023-02-01T12:44:17.856Z,80.02
2023-02-01T12:47:08.187Z,79.91
2023-02-01T12:49:51.275Z,79.89
2023-02-01T12:52:40.347Z,80.02
2023-02-01T12:55:17.986Z,80.27
2023-02-01T12:57:58.849Z,80.48
2023-02-01T13:00:43.277Z,80.17
2023-02-01T13:03:36.243Z,80.15
2023-02-01T13:06:11.553Z,79.89
2023-02-01T13:08:55.897Z,79.86
2023-02-01T13:11:31.652Z,80.00
2023-02-01T13:14:20.490Z,80.05
2023-02-01T13:16:58.318Z,79.73
2023-02-01T13:19:43.005Z,80.04
2023-02-01T13:22:23.099Z,80.15
2023-02-01T13:25:00.293Z,80.16
2023-02-01T13:27:34.161Z,80.07
2023-02-01T13:30:21.491Z,79.76
2023-02-01T13:33:52.405Z,79.82
2023-02-01T13:36:58.634Z,79.69
2023-02-01T13:40:10.339Z,80.19
2023-02-01T13:43:07.111Z,79.87
2023-02-01T13:45:44.463Z,79.83
2023-02-01T13:48:27.074Z,79.90
2023-02-01T13:51:01.045Z,79.99
2023-02-01T13:53:38.510Z,79.74
2023-02-01T13:56:25.971Z,79.78
2023-02-01T13:58:55.136Z,79.86
2023-02-01T14:01:26.290Z,80.16
2023-02-01T14:04:01.261Z,80.14
2023-02-01T14:06:34.308Z,80.21
2023-02-01T14:09:14.927Z,79.91
2023-02-01T14:11:53.086Z,79.54
2023-02-01T14:14:25.324Z,79.80
2023-02-01T14:16:54.204Z,80.07
2023-02-01T14:19:29.301Z,79.65
2023-02-01T14:22:19.499Z,79.64
2023-02-01T14:24:59.724Z,79.54
2023-02-01T14:27:32.904Z,79.96
2023-02-01T14:30:08.698Z,79.73
2023-02-01T14:32:43.250Z,79.76
2023-02-01T14:35:22.915Z,80.19
2023-02-01T14:38:04.522Z,79.63
2023-02-01T14:40:33.596Z,79.78
2023-02-01T14:43:02.761Z,79.89
2023-02-01T14:45:34.285Z,80.24
2023-02-01T14:48:09.331Z,79.63
2023-02-01T14:50:49.546Z,79.95
2023-02-01T14:53:51.245Z,79.89
2023-02-01T14:56:22.994Z,79.51
2023-02-01T14:59:19.623Z,79.90
2023-02-01T15:01:55.863Z,79.42
2023-02-01T15:04:28.528Z,79.40
2023-02-01T15:07:00.310Z,79.39
2023-02-01T15:09:33.940Z,79.88
2023-02-01T15:12:17.411Z,79.65
2023-02-01T15:15:05.822Z,79.24
2023-02-01T15:17:35.949Z,79.47
2023-02-01T15:20:15.518Z,79.75
2023-02-01T15:23:08.265Z,79.96
2023-02-01T15:25:40.831Z,79.88
2023-02-01T15:28:17.879Z,79.29
2023-02-01T15:31:00.850Z,79.75
2023-02-01T15:33:31.666Z,79.64
2023-02-01T15:36:14.560Z,79.73
2023-02-01T15:38:46.874Z,79.80
2023-02-01T15:41:24.135Z,79.55
2023-02-01T15:44:13.922Z,80.06
2023-02-01T15:46:46.856Z,79.84
2023-02-01T15:49:21.524Z,79.58
2023-02-01T15:51:51.597Z,80.05
2023-02-01T15:54:32.516Z,79.79
2023-02-01T15:57:04.056Z,79.91
2023-02-01T15:59:56.826Z,79.93
2023-02-01T16:02:36.613Z,79.50
2023-02-01T16:05:08.282Z,79.48
2023-02-01T16:07:37.242Z,79.96
2023-02-01T16:10:28.129Z,80.10
2023-02-01T16:13:02.229Z,79.85
2023-02-01T16:15:31.724Z,80.07
2023-02-01T16:18:01.048Z,80.06
2023-02-01T16:20:31.357Z,79.90
2023-02-01T16:23:00.331Z,80.04
2023-02-01T16:25:29.444Z,79.94
2023-02-01T16:27:58.651Z,80.09
2023-02-01T16:30:27.812Z,80.26
2023-02-01T16:33:01.745Z,80.23
2023-02-01T16:35:37.166Z,80.19
2023-02-01T16:38:14.443Z,80.41
2023-02-01T16:40:47.863Z,80.38
2023-02-01T16:43:25.148Z,80.52
2023-02-01T16:45:56.436Z,80.28
2023-02-01T16:48:48.846Z,79.88
2023-02-01T16:51:32.017Z,80.33
2023-02-01T16:54:11.961Z,79.89
2023-02-01T16:56:43.094Z,79.96
2023-02-01T16:59:11.917Z,79.94
2023-02-01T17:01:44.150Z,79.97
2023-02-01T17:04:13.295Z,79.99
2023-02-01T17:06:43.247Z,79.91
2023-02-01T17:09:12.223Z,80.01
2023-02-01T17:11:41.141Z,80.14
2023-02-01T17:14:17.348Z,80.02
2023-02-01T17:16:48.634Z,80.38
2023-02-01T17:19:24.751Z,79.82
2023-02-01T17:22:00.265Z,80.02
2023-02-01T17:24:42.681Z,79.99
2023-02-01T17:27:17.927Z,79.98
2023-02-01T17:29:47.723Z,80.16
2023-02-01T17:32:24.039Z,79.71
2023-02-01T17:34:53.248Z,80.12
2023-02-01T17:37:36.909Z,79.71
2023-02-01T17:40:06.178Z,79.91
2023-02-01T17:42:36.293Z,79.81
2023-02-01T17:45:23.028Z,79.73
2023-02-01T17:47:52.182Z,79.83
2023-02-01T17:50:21.205Z,80.04
2023-02-01T17:52:50.128Z,80.02
2023-02-01T17:55:23.111Z,80.15
2023-02-01T17:57:52.564Z,79.82
2023-02-01T18:00:22.934Z,80.24
2023-02-01T18:02:52.038Z,79.90
2023-02-01T18:05:30.323Z,80.12
2023-02-01T18:07:59.154Z,80.16
2023-02-01T18:10:28.121Z,80.33
2023-02-01T18:12:58.007Z,80.14
2023-02-01T18:15:28.277Z,80.06
2023-02-01T18:17:57.212Z,79.90
2023-02-01T18:20:28.002Z,80.23
2023-02-01T18:22:56.840Z,79.90
2023-02-01T18:25:28.401Z,80.08
2023-02-01T18:27:58.328Z,79.99
2023-02-01T18:30:32.332Z,80.31
2023-02-01T18:33:02.692Z,80.16
2023-02-01T18:35:33.019Z,80.16
2023-02-01T18:38:01.866Z,79.99
2023-02-01T18:40:34.510Z,80.40
2023-02-01T18:43:03.560Z,80.20
2023-02-01T18:45:35.060Z,80.16
2023-02-01T18:48:04.964Z,80.27
2023-02-01T18:50:37.507Z,80.04
2023-02-01T18:53:17.959Z,80.61
2023-02-01T18:55:50.391Z,80.28
2023-02-01T18:58:19.522Z,80.05
2023-02-01T19:00:49.271Z,80.13
2023-02-01T19:03:19.252Z,79.97
2023-02-01T19:05:50.009Z,79.95
2023-02-01T19:08:18.878Z,79.78
2023-02-01T19:10:49.291Z,80.14
2023-02-01T19:13:21.337Z,79.69
2023-02-01T19:15:50.227Z,79.77
2023-02-01T19:18:21.010Z,79.89
2023-02-01T19:20:51.966Z,80.08
2023-02-01T19:23:21.056Z,80.04
2023-02-01T19:25:50.000Z,80.02
2023-02-01T19:28:18.849Z,80.07
2023-02-01T19:30:47.789Z,80.19
2023-02-01T19:33:18.252Z,80.00
2023-02-01T19:35:47.147Z,80.24
2023-02-01T19:38:15.957Z,79.97
2023-02-01T19:40:45.394Z,80.15
2023-02-01T19:43:14.158Z,80.26
2023-02-01T19:45:44.215Z,80.10
2023-02-01T19:48:13.972Z,80.11
2023-02-01T19:50:43.011Z,80.22
2023-02-01T19:53:12.239Z,80.28
2023-02-01T19:55:46.568Z,80.17
2023-02-01T19:58:15.644Z,79.77
2023-02-01T20:00:44.484Z,80.28
2023-02-01T20:03:13.558Z,80.23
2023-02-01T20:05:43.643Z,79.90
2023-02-01T20:08:12.649Z,80.10
2023-02-01T20:10:44.770Z,80.13
2023-02-01T20:13:13.982Z,80.25
2023-02-01T20:15:43.352Z,80.50
2023-02-01T20:18:12.344Z,80.29
2023-02-01T20:20:42.258Z,80.62
2023-02-01T20:23:11.523Z,80.08
2023-02-01T20:25:41.944Z,80.23
2023-02-01T20:28:10.817Z,80.09
2023-02-01T20:30:39.842Z,80.25
2023-02-01T20:33:08.652Z,80.15
2023-02-01T20:35:37.525Z,79.92
2023-02-01T20:38:06.302Z,80.42
2023-02-01T20:40:37.885Z,80.21
2023-02-01T20:43:32.022Z,80.59
2023-02-01T20:46:01.882Z,80.20
2023-02-01T20:48:31.355Z,80.33
2023-02-01T20:51:00.990Z,79.85
2023-02-01T20:53:29.962Z,80.02
2023-02-01T20:55:59.932Z,80.36
2023-02-01T20:58:28.847Z,80.21
2023-02-01T21:00:58.456Z,80.08
2023-02-01T21:03:28.685Z,80.14
2023-02-01T21:06:00.234Z,79.82
2023-02-01T21:08:30.194Z,79.98
2023-02-01T21:11:06.080Z,80.21
2023-02-01T21:13:38.884Z,80.31
2023-02-01T21:16:10.537Z,79.85
2023-02-01T21:18:39.871Z,80.06
2023-02-01T21:21:13.800Z,79.97
2023-02-01T21:23:45.571Z,79.90
2023-02-01T21:26:16.468Z,79.96
2023-02-01T21:28:45.780Z,80.11
2023-02-01T21:31:17.828Z,79.84
2023-02-01T21:33:49.263Z,79.94
2023-02-01T21:36:21.402Z,80.00
2023-02-01T21:38:51.959Z,79.83
2023-02-01T21:41:43.838Z,79.94
2023-02-01T21:44:15.154Z,80.37
2023-02-01T21:46:45.312Z,80.27
2023-02-01T21:49:14.273Z,80.19
2023-02-01T21:51:43.941Z,80.00
2023-02-01T21:54:13.496Z,80.10
2023-02-01T21:56:42.440Z,80.22
2023-02-01T21:59:11.576Z,80.14
2023-02-01T22:01:42.522Z,80.01
2023-02-01T22:04:11.725Z,80.14
2023-02-01T22:06:46.432Z,80.37
2023-02-01T22:09:21.371Z,80.20
2023-02-01T22:11:51.492Z,79.91
2023-02-01T22:14:21.518Z,80.22
2023-02-01T22:16:50.716Z,80.35
2023-02-01T22:19:19.887Z,80.13
2023-02-01T22:21:49.841Z,79.95
2023-02-01T22:24:22.739Z,80.26
2023-02-01T22:26:51.856Z,80.08
2023-02-01T22:29:20.827Z,79.97
2023-02-01T22:31:50.021Z,80.40
2023-02-01T22:34:19.152Z,80.00
2023-02-01T22:36:49.428Z,79.89
2023-02-01T22:39:18.312Z,80.10
2023-02-01T22:41:47.071Z,79.95
2023-02-01T22:44:15.858Z,80.17
2023-02-01T22:46:45.305Z,80.01
2023-02-01T22:49:14.404Z,80.18
2023-02-01T22:51:43.831Z,80.15
2023-02-01T22:54:23.809Z,79.91
2023-02-01T22:56:52.888Z,80.26
2023-02-01T22:59:21.709Z,80.01
2023-02-01T23:01:51.354Z,80.24
2023-02-01T23:04:22.039Z,80.14
2023-02-01T23:06:54.224Z,79.88
2023-02-01T23:09:28.576Z,80.14
2023-02-01T23:11:57.346Z,79.91
2023-02-01T23:14:26.324Z,79.85
2023-02-01T23:16:55.191Z,80.04
2023-02-01T23:19:24.271Z,80.15
2023-02-01T23:21:53.083Z,80.03
2023-02-01T23:24:22.935Z,79.77
2023-02-01T23:26:51.830Z,80.19
2023-02-01T23:29:20.641Z,79.83
2023-02-01T23:31:49.497Z,80.06
2023-02-01T23:34:18.312Z,80.13
2023-02-01T23:36:47.146Z,79.71
2023-02-01T23:39:15.939Z,79.55
2023-02-01T23:41:44.755Z,79.92
2023-02-01T23:44:13.673Z,79.84
2023-02-01T23:46:47.858Z,80.07
2023-02-01T23:49:18.172Z,79.92
2023-02-01T23:51:53.683Z,80.02
2023-02-01T23:54:24.324Z,79.85
2023-02-01T23:56:53.146Z,79.99
2023-02-01T23:59:23.930Z,80.31
